Time;durP1;ratioP1;P1;durP2;ratioP2;P2;SDS_P1;SDS_P2;PMS_P1;PMS_P2;Temp;Humidity;BMP_temperature;BMP_pressure;BME280_temperature;BME280_humidity;BME280_pressure;Samples;Min_cycle;Max_cycle;Signal;HPM_P1;HPM_P2
2023/10/28 00:07:15;;;;;;;0.40;0.40;;;;;;;;;;6279330;22;20086;-90
2023/10/28 00:14:52;;;;;;;0.30;0.30;;;;;;;;;;6238990;22;20020;-92
2023/10/28 00:17:18;;;;;;;0.30;0.30;;;;;;;;;;6252243;22;20354;-91
2023/10/28 00:19:46;;;;;;;0.30;0.30;;;;;;;;;;6247826;22;19996;-92
2023/10/28 00:22:12;;;;;;;0.30;0.30;;;;;;;;;;6253918;22;20014;-93
2023/10/28 00:24:41;;;;;;;0.30;0.30;;;;;;;;;;6249999;22;20033;-92
2023/10/28 00:37:53;;;;;;;0.20;0.20;;;;;;;;;;6228981;22;20596;-90
2023/10/28 00:42:56;;;;;;;0.30;0.30;;;;;;;;;;6249417;22;20019;-91
2023/10/28 00:45:28;;;;;;;0.30;0.30;;;;;;;;;;6277768;22;20053;-91
2023/10/28 00:48:06;;;;;;;0.30;0.30;;;;;;;;;;6280243;22;20012;-92
2023/10/28 00:50:34;;;;;;;0.30;0.30;;;;;;;;;;6277477;22;20000;-93
2023/10/28 01:00:48;;;;;;;0.30;0.30;;;;;;;;;;6331364;22;20024;-91
2023/10/28 01:03:34;;;;;;;0.40;0.40;;;;;;;;;;6283192;22;20007;-90
2023/10/28 01:06:04;;;;;;;0.30;0.30;;;;;;;;;;6281621;22;20023;-92
2023/10/28 01:16:17;;;;;;;0.40;0.40;;;;;;;;;;6303922;22;20236;-93
2023/10/28 01:29:33;;;;;;;0.30;0.30;;;;;;;;;;6323141;22;19999;-89
2023/10/28 01:35:09;;;;;;;0.30;0.30;;;;;;;;;;6304733;22;20063;-92
2023/10/28 01:45:38;;;;;;;0.25;0.25;;;;;;;;;;6273799;22;20007;-91
2023/10/28 01:48:04;;;;;;;0.30;0.30;;;;;;;;;;6281897;22;20016;-91
2023/10/28 01:53:06;;;;;;;0.40;0.40;;;;;;;;;;6327725;22;20110;-90
2023/10/28 02:08:31;;;;;;;0.57;0.57;;;;;;;;;;6325012;22;20111;-86
2023/10/28 02:10:57;;;;;;;0.40;0.40;;;;;;;;;;6296187;22;20019;-86
2023/10/28 02:13:37;;;;;;;0.40;0.40;;;;;;;;;;6306660;22;20019;-85
2023/10/28 02:16:21;;;;;;;0.30;0.30;;;;;;;;;;6306925;22;20061;-87
2023/10/28 02:18:50;;;;;;;0.30;0.30;;;;;;;;;;6307455;22;20006;-86
2023/10/28 02:21:20;;;;;;;0.40;0.40;;;;;;;;;;6306891;22;20053;-87
2023/10/28 02:23:56;;;;;;;0.40;0.40;;;;;;;;;;6301633;22;20022;-87
2023/10/28 02:26:35;;;;;;;;;;;;;;;;;;6276586;22;20019;-88
2023/10/28 02:29:07;;;;;;;0.30;0.30;;;;;;;;;;6302382;22;19910;-85
2023/10/28 02:32:05;;;;;;;0.30;0.30;;;;;;;;;;6206924;23;20013;-87
2023/10/28 02:34:32;;;;;;;0.30;0.30;;;;;;;;;;6264905;22;20075;-88
2023/10/28 02:36:59;;;;;;;0.40;0.40;;;;;;;;;;6306987;22;20038;-87
2023/10/28 02:39:26;;;;;;;0.30;0.30;;;;;;;;;;6303141;22;20007;-88
2023/10/28 02:42:00;;;;;;;0.40;0.40;;;;;;;;;;6277937;22;20019;-85
2023/10/28 02:44:53;;;;;;;0.30;0.30;;;;;;;;;;6306839;22;20015;-86
2023/10/28 02:47:30;;;;;;;0.32;0.32;;;;;;;;;;6301833;22;20007;-87
2023/10/28 02:50:16;;;;;;;0.40;0.40;;;;;;;;;;6333491;22;20022;-87
2023/10/28 02:52:43;;;;;;;0.30;0.30;;;;;;;;;;6272145;22;20019;-87
2023/10/28 02:55:10;;;;;;;0.40;0.40;;;;;;;;;;6271838;22;20016;-84
2023/10/28 02:57:38;;;;;;;0.40;0.40;;;;;;;;;;6280597;22;19999;-86
2023/10/28 03:00:26;;;;;;;0.20;0.20;;;;;;;;;;6268788;22;20033;-86
2023/10/28 03:03:07;;;;;;;0.40;0.40;;;;;;;;;;6294436;22;20038;-85
2023/10/28 03:05:43;;;;;;;0.30;0.30;;;;;;;;;;6304421;22;20016;-87
2023/10/28 03:08:09;;;;;;;0.30;0.30;;;;;;;;;;6280172;22;20044;-87
2023/10/28 03:10:35;;;;;;;0.30;0.30;;;;;;;;;;6275386;22;20061;-86
2023/10/28 03:13:22;;;;;;;0.40;0.40;;;;;;;;;;6318535;22;20003;-85
2023/10/28 03:15:48;;;;;;;0.30;0.30;;;;;;;;;;6300954;22;20049;-87
2023/10/28 03:18:23;;;;;;;0.47;0.47;;;;;;;;;;6304671;22;20014;-87
2023/10/28 03:20:51;;;;;;;0.45;0.45;;;;;;;;;;6273220;22;20026;-86
2023/10/28 03:23:19;;;;;;;0.30;0.30;;;;;;;;;;6255025;22;20062;-86
2023/10/28 03:25:55;;;;;;;0.32;0.32;;;;;;;;;;6306673;22;20405;-86
2023/10/28 03:28:22;;;;;;;0.40;0.40;;;;;;;;;;6325318;22;20019;-87
2023/10/28 03:30:47;;;;;;;0.30;0.30;;;;;;;;;;6264499;22;20019;-87
2023/10/28 03:33:15;;;;;;;0.40;0.40;;;;;;;;;;6279074;22;20026;-86
2023/10/28 03:35:56;;;;;;;0.30;0.30;;;;;;;;;;6254171;22;20019;-86
2023/10/28 03:38:24;;;;;;;0.30;0.30;;;;;;;;;;6278303;22;20062;-87
2023/10/28 03:40:59;;;;;;;0.40;0.40;;;;;;;;;;6281350;22;20023;-86
2023/10/28 03:43:31;;;;;;;0.35;0.35;;;;;;;;;;6282270;22;20022;-87
2023/10/28 03:46:07;;;;;;;0.40;0.40;;;;;;;;;;6306679;22;19999;-87
2023/10/28 03:48:49;;;;;;;0.30;0.30;;;;;;;;;;6280596;22;20079;-88
2023/10/28 03:51:27;;;;;;;0.35;0.35;;;;;;;;;;6334193;22;20042;-89
2023/10/28 03:54:05;;;;;;;0.30;0.30;;;;;;;;;;6301260;22;20027;-85
2023/10/28 03:56:33;;;;;;;0.35;0.35;;;;;;;;;;6277095;22;20466;-86
2023/10/28 03:59:00;;;;;;;0.30;0.30;;;;;;;;;;6275924;22;20046;-86
2023/10/28 04:01:27;;;;;;;0.30;0.30;;;;;;;;;;6276352;22;19995;-87
2023/10/28 04:03:56;;;;;;;0.30;0.30;;;;;;;;;;6306819;22;20018;-87
2023/10/28 04:06:27;;;;;;;0.30;0.30;;;;;;;;;;6277086;22;20018;-88
2023/10/28 04:09:07;;;;;;;0.30;0.30;;;;;;;;;;6328103;22;20033;-85
2023/10/28 04:11:39;;;;;;;0.30;0.30;;;;;;;;;;6331504;22;19996;-87
2023/10/28 04:14:08;;;;;;;0.30;0.30;;;;;;;;;;6277122;22;20018;-87
2023/10/28 04:16:39;;;;;;;0.30;0.30;;;;;;;;;;6305077;22;20011;-86
2023/10/28 04:19:14;;;;;;;0.30;0.30;;;;;;;;;;6283597;22;20041;-87
2023/10/28 04:21:46;;;;;;;0.30;0.30;;;;;;;;;;6305274;22;20011;-88
2023/10/28 04:24:30;;;;;;;0.30;0.30;;;;;;;;;;6303686;22;20054;-85
2023/10/28 04:26:59;;;;;;;0.43;0.43;;;;;;;;;;6273157;22;20071;-87
2023/10/28 04:29:29;;;;;;;0.20;0.20;;;;;;;;;;6280394;22;20026;-86
2023/10/28 04:32:27;;;;;;;0.40;0.40;;;;;;;;;;6293063;22;20027;-85
2023/10/28 04:34:57;;;;;;;0.28;0.28;;;;;;;;;;6276977;22;20022;-86
2023/10/28 04:37:48;;;;;;;0.30;0.30;;;;;;;;;;6306768;22;20019;-87
2023/10/28 04:40:15;;;;;;;0.30;0.30;;;;;;;;;;6281490;22;19999;-87
2023/10/28 04:43:01;;;;;;;0.30;0.30;;;;;;;;;;6306963;22;20015;-86
2023/10/28 04:45:36;;;;;;;0.30;0.30;;;;;;;;;;6299891;22;20084;-86
2023/10/28 04:48:06;;;;;;;0.30;0.30;;;;;;;;;;6277255;22;20458;-86
2023/10/28 04:50:35;;;;;;;0.30;0.30;;;;;;;;;;6326920;22;20063;-87
2023/10/28 04:53:02;;;;;;;0.30;0.30;;;;;;;;;;6271336;22;20019;-86
2023/10/28 04:55:31;;;;;;;0.30;0.30;;;;;;;;;;6270545;22;20019;-86
2023/10/28 04:57:57;;;;;;;0.30;0.30;;;;;;;;;;6280434;22;20011;-86
2023/10/28 05:00:30;;;;;;;0.40;0.40;;;;;;;;;;6247555;22;20011;-86
2023/10/28 05:03:04;;;;;;;0.30;0.30;;;;;;;;;;6274340;22;20094;-85
2023/10/28 05:05:34;;;;;;;0.30;0.30;;;;;;;;;;6306428;22;20019;-85
2023/10/28 05:08:05;;;;;;;0.40;0.40;;;;;;;;;;6325667;22;20059;-86
2023/10/28 05:10:53;;;;;;;;;;;;;;;;;;;;;
2023/10/28 05:13:40;;;;;;;0.28;0.28;;;;;;;;;;6307272;22;20019;-85
2023/10/28 05:16:06;;;;;;;0.30;0.30;;;;;;;;;;6276671;22;20439;-87
2023/10/28 05:18:32;;;;;;;0.40;0.40;;;;;;;;;;6262001;22;20015;-87
2023/10/28 05:21:10;;;;;;;0.20;0.20;;;;;;;;;;6274826;22;20024;-86
2023/10/28 05:23:52;;;;;;;0.20;0.20;;;;;;;;;;6328390;22;20076;-87
2023/10/28 05:26:19;;;;;;;0.25;0.25;;;;;;;;;;6271773;22;20068;-87
2023/10/28 05:28:46;;;;;;;0.20;0.20;;;;;;;;;;6266357;22;20030;-86
2023/10/28 05:31:14;;;;;;;0.30;0.30;;;;;;;;;;6272639;22;20469;-86
2023/10/28 05:33:44;;;;;;;0.30;0.30;;;;;;;;;;6299817;22;20030;-86
2023/10/28 05:36:11;;;;;;;0.30;0.30;;;;;;;;;;6281650;22;20098;-86
2023/10/28 05:39:20;;;;;;;0.40;0.40;;;;;;;;;;6331848;22;20017;-84
2023/10/28 05:41:51;;;;;;;0.30;0.30;;;;;;;;;;6306439;22;20012;-85
2023/10/28 05:44:21;;;;;;;0.30;0.30;;;;;;;;;;6271962;22;20069;-86
2023/10/28 05:46:50;;;;;;;0.30;0.30;;;;;;;;;;6298966;22;20011;-87
2023/10/28 05:49:16;;;;;;;0.32;0.32;;;;;;;;;;6263054;22;20465;-86
2023/10/28 05:51:45;;;;;;;0.40;0.40;;;;;;;;;;6280236;22;20446;-86
2023/10/28 05:54:16;;;;;;;0.40;0.40;;;;;;;;;;6277178;22;20020;-87
2023/10/28 05:56:45;;;;;;;0.30;0.30;;;;;;;;;;6281857;22;20013;-86
2023/10/28 05:59:13;;;;;;;0.40;0.40;;;;;;;;;;6302915;22;20045;-86
2023/10/28 06:01:51;;;;;;;0.30;0.30;;;;;;;;;;6303626;22;20072;-85
2023/10/28 06:04:17;;;;;;;0.40;0.40;;;;;;;;;;6272104;22;20003;-86
2023/10/28 06:06:48;;;;;;;0.30;0.30;;;;;;;;;;6307178;22;20011;-86
2023/10/28 06:09:22;;;;;;;0.40;0.40;;;;;;;;;;6278386;22;20026;-87
2023/10/28 06:12:14;;;;;;;0.30;0.30;;;;;;;;;;6307330;22;20026;-84
2023/10/28 06:14:50;;;;;;;0.30;0.30;;;;;;;;;;6332169;22;20000;-86
2023/10/28 06:17:24;;;;;;;0.32;0.32;;;;;;;;;;6277976;22;20067;-85
2023/10/28 06:19:56;;;;;;;0.30;0.30;;;;;;;;;;6300126;22;20019;-85
2023/10/28 06:22:32;;;;;;;0.40;0.40;;;;;;;;;;6280055;22;20050;-85
2023/10/28 06:24:58;;;;;;;0.30;0.30;;;;;;;;;;6274346;22;20011;-86
2023/10/28 06:27:24;;;;;;;0.20;0.20;;;;;;;;;;6275440;22;20015;-86
2023/10/28 06:30:23;;;;;;;0.30;0.30;;;;;;;;;;6277568;22;20026;-85
2023/10/28 06:32:51;;;;;;;0.30;0.30;;;;;;;;;;6278271;22;20039;-86
2023/10/28 06:35:20;;;;;;;0.30;0.30;;;;;;;;;;6253373;22;20016;-85
2023/10/28 06:37:51;;;;;;;0.30;0.30;;;;;;;;;;6271462;22;20464;-86
2023/10/28 06:40:28;;;;;;;0.30;0.30;;;;;;;;;;6302228;22;20060;-87
2023/10/28 06:42:59;;;;;;;0.20;0.20;;;;;;;;;;6300443;22;20012;-85
2023/10/28 06:45:28;;;;;;;0.40;0.40;;;;;;;;;;6277931;22;20069;-86
2023/10/28 06:47:55;;;;;;;0.35;0.35;;;;;;;;;;6269930;22;20015;-92
2023/10/28 06:50:23;;;;;;;0.40;0.40;;;;;;;;;;6280512;22;20028;-90
2023/10/28 06:58:05;;;;;;;0.40;0.40;;;;;;;;;;6312549;22;19902;-92
2023/10/28 07:08:39;;;;;;;0.40;0.40;;;;;;;;;;6310705;22;20081;-92
2023/10/28 07:19:43;;;;;;;0.35;0.35;;;;;;;;;;6302968;22;20023;-93
2023/10/28 07:25:21;;;;;;;0.30;0.30;;;;;;;;;;6260907;22;20026;-90
2023/10/28 07:27:47;;;;;;;0.40;0.40;;;;;;;;;;5599180;22;15104593;-92
2023/10/28 07:33:02;;;;;;;0.30;0.30;;;;;;;;;;6281979;22;20030;-92
2023/10/28 07:35:28;;;;;;;0.30;0.30;;;;;;;;;;6258950;22;20007;-92
2023/10/28 07:37:56;;;;;;;0.40;0.40;;;;;;;;;;6282464;22;20041;-93
2023/10/28 07:45:39;;;;;;;0.40;0.40;;;;;;;;;;6259997;22;20133;-95
2023/10/28 08:08:54;;;;;;;0.38;0.38;;;;;;;;;;6276724;22;20020;-94
2023/10/28 08:11:24;;;;;;;0.20;0.20;;;;;;;;;;6284186;22;20003;-92
2023/10/28 08:13:51;;;;;;;0.40;0.40;;;;;;;;;;6279638;22;20019;-93
2023/10/28 08:16:20;;;;;;;0.30;0.30;;;;;;;;;;6280918;22;20023;-92
2023/10/28 08:24:17;;;;;;;0.22;0.22;;;;;;;;;;6293552;22;20015;-94
2023/10/28 08:31:57;;;;;;;0.30;0.30;;;;;;;;;;6265837;22;20023;-92
2023/10/28 08:39:40;;;;;;;0.40;0.40;;;;;;;;;;6321061;22;20011;-93
2023/10/28 08:42:06;;;;;;;0.25;0.25;;;;;;;;;;6265904;22;20011;-92
2023/10/28 08:47:16;;;;;;;0.35;0.35;;;;;;;;;;6293463;22;20028;-86
2023/10/28 08:49:47;;;;;;;0.30;0.30;;;;;;;;;;6271746;22;20018;-86
2023/10/28 08:52:23;;;;;;;0.30;0.30;;;;;;;;;;6243178;22;20046;-85
2023/10/28 08:54:59;;;;;;;0.30;0.30;;;;;;;;;;6228211;22;20016;-84
2023/10/28 08:57:36;;;;;;;0.20;0.20;;;;;;;;;;6253944;22;19996;-85
2023/10/28 09:00:14;;;;;;;0.30;0.30;;;;;;;;;;6275137;22;20007;-86
2023/10/28 09:02:45;;;;;;;0.25;0.25;;;;;;;;;;6249329;22;20037;-86
2023/10/28 09:05:19;;;;;;;0.30;0.30;;;;;;;;;;6248901;22;20022;-86
2023/10/28 09:12:58;;;;;;;0.30;0.30;;;;;;;;;;6330617;22;20023;-91
2023/10/28 09:15:28;;;;;;;0.30;0.30;;;;;;;;;;6279357;22;20019;-93
2023/10/28 09:18:29;;;;;;;0.40;0.40;;;;;;;;;;6304894;22;20007;-91
2023/10/28 09:29:05;;;;;;;0.35;0.35;;;;;;;;;;6326969;22;20012;-92
2023/10/28 09:39:19;;;;;;;0.30;0.30;;;;;;;;;;6300936;22;20020;-90
2023/10/28 09:41:46;;;;;;;0.40;0.40;;;;;;;;;;6249964;22;20024;-89
2023/10/28 09:49:25;;;;;;;0.32;0.32;;;;;;;;;;6330989;22;20041;-91
2023/10/28 09:51:53;;;;;;;0.30;0.30;;;;;;;;;;6309770;22;20031;-92
2023/10/28 09:54:37;;;;;;;0.30;0.30;;;;;;;;;;6258427;22;20012;-91
2023/10/28 09:59:40;;;;;;;0.30;0.30;;;;;;;;;;6330565;22;20023;-91
2023/10/28 10:02:14;;;;;;;0.22;0.22;;;;;;;;;;6265576;22;20023;-90
2023/10/28 10:09:53;;;;;;;0.20;0.20;;;;;;;;;;6325548;22;20010;-92
2023/10/28 10:15:06;;;;;;;0.20;0.20;;;;;;;;;;6321115;22;25076;-92
2023/10/28 10:17:44;;;;;;;0.20;0.20;;;;;;;;;;6243352;22;20022;-91
2023/10/28 10:20:10;;;;;;;0.30;0.30;;;;;;;;;;6304670;22;20019;-89
2023/10/28 10:25:15;;;;;;;0.32;0.32;;;;;;;;;;6308025;22;20007;-91
2023/10/28 10:28:20;;;;;;;0.30;0.30;;;;;;;;;;6290354;22;20001;-93
2023/10/28 10:30:52;;;;;;;0.20;0.20;;;;;;;;;;6310798;22;20019;-91
2023/10/28 10:33:25;;;;;;;0.30;0.30;;;;;;;;;;6234949;22;20060;-91
2023/10/28 10:35:52;;;;;;;0.35;0.35;;;;;;;;;;6276713;22;20014;-90
2023/10/28 10:38:26;;;;;;;0.30;0.30;;;;;;;;;;6278268;22;20037;-89
2023/10/28 10:40:58;;;;;;;0.30;0.30;;;;;;;;;;6279121;22;20007;-93
2023/10/28 10:43:40;;;;;;;0.30;0.30;;;;;;;;;;6261705;22;20033;-89
2023/10/28 10:46:06;;;;;;;0.28;0.28;;;;;;;;;;6303339;22;20085;-92
2023/10/28 10:48:33;;;;;;;0.38;0.38;;;;;;;;;;6303154;22;20019;-91
2023/10/28 10:51:00;;;;;;;0.20;0.20;;;;;;;;;;6305410;22;20003;-91
2023/10/28 10:58:48;;;;;;;0.35;0.35;;;;;;;;;;6330371;22;20083;-87
2023/10/28 11:01:15;;;;;;;0.30;0.30;;;;;;;;;;6281610;22;19995;-88
2023/10/28 11:03:41;;;;;;;0.30;0.30;;;;;;;;;;6278825;22;20037;-90
2023/10/28 11:08:43;;;;;;;0.20;0.20;;;;;;;;;;6297250;22;20031;-90
2023/10/28 11:11:13;;;;;;;0.40;0.40;;;;;;;;;;6247714;22;20011;-91
2023/10/28 11:13:43;;;;;;;0.30;0.30;;;;;;;;;;6225444;22;20024;-90
2023/10/28 11:16:22;;;;;;;0.40;0.40;;;;;;;;;;6244751;22;20089;-90
2023/10/28 11:18:49;;;;;;;0.28;0.28;;;;;;;;;;6280756;22;20023;-91
2023/10/28 11:21:15;;;;;;;0.20;0.20;;;;;;;;;;6284658;22;20027;-90
2023/10/28 11:34:24;;;;;;;0.20;0.20;;;;;;;;;;6299533;22;20031;-89
2023/10/28 11:39:28;;;;;;;0.30;0.30;;;;;;;;;;6327996;22;20015;-89
2023/10/28 11:47:06;;;;;;;0.20;0.20;;;;;;;;;;6295525;22;20083;-90
2023/10/28 11:49:32;;;;;;;0.30;0.30;;;;;;;;;;6274953;22;20019;-89
2023/10/28 11:52:25;;;;;;;0.30;0.30;;;;;;;;;;6277573;22;20059;-87
2023/10/28 12:00:04;;;;;;;0.30;0.30;;;;;;;;;;6316321;22;20015;-89
2023/10/28 12:02:32;;;;;;;0.30;0.30;;;;;;;;;;6281156;22;20003;-89
2023/10/28 12:05:20;;;;;;;0.10;0.10;;;;;;;;;;6313186;22;20057;-88
2023/10/28 12:07:46;;;;;;;0.15;0.15;;;;;;;;;;6285252;22;20019;-88
2023/10/28 12:10:22;;;;;;;0.20;0.20;;;;;;;;;;6312069;22;20063;-88
2023/10/28 12:15:26;;;;;;;0.13;0.13;;;;;;;;;;6329231;22;20020;-87
2023/10/28 12:17:55;;;;;;;0.20;0.20;;;;;;;;;;6255710;22;20026;-89
2023/10/28 12:20:30;;;;;;;0.30;0.30;;;;;;;;;;6281767;22;20039;-87
2023/10/28 12:25:38;;;;;;;0.25;0.25;;;;;;;;;;6331150;22;20030;-87
2023/10/28 12:28:12;;;;;;;0.35;0.35;;;;;;;;;;6276853;22;20015;-89
2023/10/28 12:33:57;;;;;;;0.20;0.20;;;;;;;;;;6302685;22;20027;-87
2023/10/28 12:36:24;;;;;;;0.15;0.15;;;;;;;;;;6260992;22;20745;-88
2023/10/28 12:38:55;;;;;;;0.20;0.20;;;;;;;;;;6301963;22;20029;-88
2023/10/28 12:41:24;;;;;;;0.20;0.20;;;;;;;;;;6310432;22;20018;-87
2023/10/28 12:43:56;;;;;;;0.22;0.22;;;;;;;;;;6326045;22;20085;-89
2023/10/28 12:46:28;;;;;;;0.20;0.20;;;;;;;;;;6304619;22;20004;-87
2023/10/28 12:49:24;;;;;;;0.20;0.20;;;;;;;;;;6324491;22;20019;-88
2023/10/28 12:52:01;;;;;;;0.20;0.20;;;;;;;;;;6337338;22;20041;-87
2023/10/28 12:54:34;;;;;;;0.28;0.28;;;;;;;;;;6310673;22;20014;-87
2023/10/28 12:57:07;;;;;;;0.20;0.20;;;;;;;;;;6331762;22;20040;-87
2023/10/28 12:59:36;;;;;;;0.20;0.20;;;;;;;;;;6333124;22;20007;-88
2023/10/28 13:02:04;;;;;;;0.30;0.30;;;;;;;;;;6302301;22;20023;-88
2023/10/28 13:04:32;;;;;;;0.20;0.20;;;;;;;;;;6274842;22;20014;-88
2023/10/28 13:06:59;;;;;;;0.20;0.20;;;;;;;;;;6310258;22;20026;-88
2023/10/28 13:12:05;;;;;;;0.20;0.20;;;;;;;;;;6290500;22;20074;-89
2023/10/28 13:14:31;;;;;;;0.20;0.20;;;;;;;;;;6246735;22;20015;-88
2023/10/28 13:16:58;;;;;;;0.25;0.25;;;;;;;;;;6250087;22;20031;-89
2023/10/28 13:19:24;;;;;;;0.20;0.20;;;;;;;;;;6243439;22;20016;-87
2023/10/28 13:21:53;;;;;;;0.32;0.32;;;;;;;;;;6247633;22;20020;-87
2023/10/28 13:24:25;;;;;;;0.30;0.30;;;;;;;;;;6249474;22;20359;-87
2023/10/28 13:26:51;;;;;;;0.20;0.20;;;;;;;;;;6244293;22;20015;-88
2023/10/28 13:29:17;;;;;;;0.17;0.17;;;;;;;;;;6245845;22;20012;-88
2023/10/28 13:31:50;;;;;;;0.20;0.20;;;;;;;;;;6250936;22;20024;-89
2023/10/28 13:34:17;;;;;;;0.20;0.20;;;;;;;;;;6274542;22;20024;-87
2023/10/28 13:36:47;;;;;;;0.20;0.20;;;;;;;;;;6250573;22;20070;-87
2023/10/28 13:39:24;;;;;;;0.30;0.30;;;;;;;;;;6250318;22;20026;-86
2023/10/28 13:49:42;;;;;;;0.30;0.30;;;;;;;;;;6281916;22;20020;-88
2023/10/28 13:52:08;;;;;;;0.20;0.20;;;;;;;;;;6248593;22;20015;-88
2023/10/28 13:54:36;;;;;;;0.30;0.30;;;;;;;;;;6245269;22;20020;-88
2023/10/28 13:57:03;;;;;;;0.20;0.20;;;;;;;;;;6250331;22;20057;-87
2023/10/28 13:59:29;;;;;;;0.10;0.10;;;;;;;;;;6268678;22;20024;-87
2023/10/28 14:01:59;;;;;;;0.20;0.20;;;;;;;;;;6246738;22;20027;-88
2023/10/28 14:04:28;;;;;;;0.10;0.10;;;;;;;;;;6275159;22;20027;-88
2023/10/28 14:07:11;;;;;;;0.20;0.20;;;;;;;;;;6245022;22;20016;-89
2023/10/28 14:09:42;;;;;;;0.20;0.20;;;;;;;;;;6267790;22;20003;-90
2023/10/28 14:12:10;;;;;;;0.20;0.20;;;;;;;;;;6273130;22;20014;-89
2023/10/28 14:25:02;;;;;;;0.20;0.20;;;;;;;;;;6334426;22;20023;-90
2023/10/28 14:30:05;;;;;;;0.20;0.20;;;;;;;;;;6262807;22;20024;-91
2023/10/28 14:32:37;;;;;;;0.13;0.13;;;;;;;;;;6243777;23;20023;-89
2023/10/28 14:37:41;;;;;;;0.25;0.25;;;;;;;;;;6324831;22;20026;-89
2023/10/28 14:40:07;;;;;;;0.20;0.20;;;;;;;;;;6277698;22;20067;-89
2023/10/28 14:42:36;;;;;;;0.10;0.10;;;;;;;;;;6302287;22;20011;-88
2023/10/28 14:45:02;;;;;;;0.35;0.35;;;;;;;;;;6251531;22;20019;-89
2023/10/28 14:50:05;;;;;;;0.20;0.20;;;;;;;;;;6328954;22;20019;-89
2023/10/28 14:52:31;;;;;;;0.20;0.20;;;;;;;;;;6261425;22;20042;-89
2023/10/28 14:54:58;;;;;;;0.20;0.20;;;;;;;;;;6273963;22;20000;-89
2023/10/28 14:57:25;;;;;;;0.22;0.22;;;;;;;;;;6296538;22;20038;-88
2023/10/28 14:59:54;;;;;;;0.20;0.20;;;;;;;;;;6298530;22;20026;-89
2023/10/28 15:02:24;;;;;;;0.30;0.30;;;;;;;;;;6277314;22;20012;-89
2023/10/28 15:04:54;;;;;;;0.20;0.20;;;;;;;;;;6301755;22;20004;-89
2023/10/28 15:07:23;;;;;;;0.30;0.30;;;;;;;;;;6249233;22;20000;-87
2023/10/28 15:09:49;;;;;;;0.20;0.20;;;;;;;;;;6273294;22;20019;-89
2023/10/28 15:12:16;;;;;;;0.30;0.30;;;;;;;;;;6297348;22;20030;-89
2023/10/28 15:17:20;;;;;;;0.20;0.20;;;;;;;;;;6321683;22;20008;-89
2023/10/28 15:19:46;;;;;;;0.30;0.30;;;;;;;;;;6276819;22;20003;-89
2023/10/28 15:22:16;;;;;;;0.20;0.20;;;;;;;;;;6283315;22;20003;-90
2023/10/28 15:24:42;;;;;;;0.30;0.30;;;;;;;;;;6283421;22;20011;-89
2023/10/28 15:27:09;;;;;;;0.20;0.20;;;;;;;;;;6279802;22;20067;-89
2023/10/28 15:29:46;;;;;;;0.30;0.30;;;;;;;;;;6276911;22;20084;-90
2023/10/28 15:32:20;;;;;;;0.40;0.40;;;;;;;;;;6280534;22;20003;-89
2023/10/28 15:34:49;;;;;;;0.20;0.20;;;;;;;;;;6300474;22;20023;-89
2023/10/28 15:37:16;;;;;;;0.20;0.20;;;;;;;;;;6277216;22;20501;-88
2023/10/28 15:39:47;;;;;;;0.20;0.20;;;;;;;;;;6275750;22;20023;-88
2023/10/28 15:47:25;;;;;;;0.25;0.25;;;;;;;;;;6329841;22;20031;-90
2023/10/28 15:49:51;;;;;;;0.20;0.20;;;;;;;;;;6278191;22;20030;-91
2023/10/28 15:52:23;;;;;;;0.40;0.40;;;;;;;;;;6258010;22;20003;-88
2023/10/28 15:54:55;;;;;;;0.30;0.30;;;;;;;;;;6278711;22;20034;-88
2023/10/28 15:57:27;;;;;;;0.20;0.20;;;;;;;;;;6281655;22;20034;-88
2023/10/28 15:59:53;;;;;;;0.40;0.40;;;;;;;;;;6280959;22;20015;-89
2023/10/28 16:04:59;;;;;;;0.20;0.20;;;;;;;;;;6332535;22;19918;-90
2023/10/28 16:07:25;;;;;;;0.30;0.30;;;;;;;;;;6279546;22;20026;-88
2023/10/28 16:09:53;;;;;;;0.20;0.20;;;;;;;;;;6280452;22;20027;-88
2023/10/28 16:12:19;;;;;;;0.20;0.20;;;;;;;;;;6283634;22;20027;-87
2023/10/28 16:14:53;;;;;;;0.20;0.20;;;;;;;;;;6282111;22;20026;-89
2023/10/28 16:17:21;;;;;;;0.30;0.30;;;;;;;;;;6307280;22;20019;-89
2023/10/28 16:27:48;;;;;;;0.28;0.28;;;;;;;;;;6299375;22;20004;-88
2023/10/28 16:30:15;;;;;;;0.30;0.30;;;;;;;;;;6248420;22;20053;-90
2023/10/28 16:32:41;;;;;;;0.20;0.20;;;;;;;;;;6252688;22;20022;-89
2023/10/28 16:35:11;;;;;;;0.30;0.30;;;;;;;;;;6245756;22;20064;-90
2023/10/28 16:43:11;;;;;;;0.20;0.20;;;;;;;;;;6276713;22;20023;-88
2023/10/28 16:45:40;;;;;;;0.30;0.30;;;;;;;;;;6274566;22;20023;-90
2023/10/28 16:48:09;;;;;;;0.20;0.20;;;;;;;;;;6309637;22;20029;-89
2023/10/28 16:50:57;;;;;;;0.20;0.20;;;;;;;;;;6281795;22;20047;-88
2023/10/28 16:53:36;;;;;;;0.20;0.20;;;;;;;;;;6282139;22;20054;-89
2023/10/28 16:56:34;;;;;;;0.30;0.30;;;;;;;;;;6331652;22;20049;-88
2023/10/28 16:59:09;;;;;;;0.40;0.40;;;;;;;;;;6309710;22;20015;-89
2023/10/28 17:01:36;;;;;;;0.30;0.30;;;;;;;;;;6303402;22;20023;-87
2023/10/28 17:04:11;;;;;;;0.30;0.30;;;;;;;;;;6296928;22;20286;-89
2023/10/28 17:06:40;;;;;;;0.30;0.30;;;;;;;;;;6279526;22;20026;-88
2023/10/28 17:11:46;;;;;;;0.28;0.28;;;;;;;;;;6294335;22;20030;-89
2023/10/28 17:14:19;;;;;;;0.22;0.22;;;;;;;;;;6279058;22;20010;-88
2023/10/28 17:21:57;;;;;;;0.20;0.20;;;;;;;;;;6295476;22;20031;-88
2023/10/28 17:26:59;;;;;;;0.28;0.28;;;;;;;;;;6312794;22;20034;-88
2023/10/28 17:29:31;;;;;;;0.20;0.20;;;;;;;;;;6281005;22;20051;-89
2023/10/28 17:32:00;;;;;;;;;;;;;;;;;;6301811;22;20030;-89
2023/10/28 17:34:30;;;;;;;0.20;0.20;;;;;;;;;;6304961;22;19914;-88
2023/10/28 17:36:58;;;;;;;0.20;0.20;;;;;;;;;;6327018;22;20030;-89
2023/10/28 17:39:29;;;;;;;0.20;0.20;;;;;;;;;;6280638;22;20066;-88
2023/10/28 17:42:07;;;;;;;0.13;0.13;;;;;;;;;;6257872;22;20023;-89
2023/10/28 17:47:10;;;;;;;0.22;0.22;;;;;;;;;;6310131;22;20025;-87
2023/10/28 17:49:41;;;;;;;0.30;0.30;;;;;;;;;;6306265;22;20023;-87
2023/10/28 17:52:08;;;;;;;0.20;0.20;;;;;;;;;;6274491;22;20019;-89
2023/10/28 17:54:34;;;;;;;0.20;0.20;;;;;;;;;;6273756;22;20039;-90
2023/10/28 17:57:02;;;;;;;0.20;0.20;;;;;;;;;;6306196;22;20027;-89
2023/10/28 17:59:28;;;;;;;0.22;0.22;;;;;;;;;;6305083;22;20015;-90
2023/10/28 18:01:54;;;;;;;0.40;0.40;;;;;;;;;;6274347;22;20053;-89
2023/10/28 18:04:20;;;;;;;0.30;0.30;;;;;;;;;;6272321;22;20015;-88
2023/10/28 18:06:46;;;;;;;0.20;0.20;;;;;;;;;;6302755;22;20023;-88
2023/10/28 18:09:13;;;;;;;0.20;0.20;;;;;;;;;;6274740;22;20046;-87
2023/10/28 18:14:16;;;;;;;0.20;0.20;;;;;;;;;;6324755;22;20019;-88
2023/10/28 18:16:45;;;;;;;0.17;0.17;;;;;;;;;;6277765;22;20077;-89
2023/10/28 18:21:53;;;;;;;0.40;0.40;;;;;;;;;;6308758;22;20223;-88
2023/10/28 18:24:26;;;;;;;0.30;0.30;;;;;;;;;;6299198;22;20497;-88
2023/10/28 18:34:58;;;;;;;0.30;0.30;;;;;;;;;;6306353;22;20066;-87
2023/10/28 18:37:25;;;;;;;0.20;0.20;;;;;;;;;;6276440;22;20015;-88
2023/10/28 18:39:51;;;;;;;0.20;0.20;;;;;;;;;;6274416;22;20041;-88
2023/10/28 18:42:17;;;;;;;0.30;0.30;;;;;;;;;;6252847;22;20019;-88
2023/10/28 18:44:43;;;;;;;0.30;0.30;;;;;;;;;;6274011;22;20030;-88
2023/10/28 18:47:09;;;;;;;0.30;0.30;;;;;;;;;;6276966;22;20041;-89
2023/10/28 18:49:40;;;;;;;0.20;0.20;;;;;;;;;;6279986;22;20007;-89
2023/10/28 18:52:17;;;;;;;0.20;0.20;;;;;;;;;;6309437;22;20038;-90
2023/10/28 18:54:43;;;;;;;0.40;0.40;;;;;;;;;;6298136;22;20323;-91
2023/10/28 18:57:10;;;;;;;0.20;0.20;;;;;;;;;;6307031;22;20007;-88
2023/10/28 18:59:37;;;;;;;0.30;0.30;;;;;;;;;;6274006;22;20024;-89
2023/10/28 19:02:03;;;;;;;0.30;0.30;;;;;;;;;;6255608;22;20020;-89
2023/10/28 19:04:41;;;;;;;0.40;0.40;;;;;;;;;;6277088;22;20008;-90
2023/10/28 19:12:20;;;;;;;0.30;0.30;;;;;;;;;;6278969;22;20033;-87
2023/10/28 19:14:46;;;;;;;0.20;0.20;;;;;;;;;;6275488;22;20016;-89
2023/10/28 19:19:48;;;;;;;0.20;0.20;;;;;;;;;;6298398;22;20075;-89
2023/10/28 19:22:15;;;;;;;0.20;0.20;;;;;;;;;;6245174;22;20016;-90
2023/10/28 19:24:41;;;;;;;0.30;0.30;;;;;;;;;;6272597;22;20087;-89
2023/10/28 19:34:54;;;;;;;0.20;0.20;;;;;;;;;;6314394;22;20033;-89
2023/10/28 19:37:20;;;;;;;0.30;0.30;;;;;;;;;;6274058;22;20046;-89
2023/10/28 19:39:47;;;;;;;0.20;0.20;;;;;;;;;;6278749;22;20015;-89
2023/10/28 19:42:16;;;;;;;0.32;0.32;;;;;;;;;;6275778;22;20023;-89
2023/10/28 19:44:44;;;;;;;0.40;0.40;;;;;;;;;;6301824;22;20026;-88
2023/10/28 19:52:24;;;;;;;0.38;0.38;;;;;;;;;;6321633;22;20023;-90
2023/10/28 19:54:55;;;;;;;0.28;0.28;;;;;;;;;;6286146;22;20039;-90
2023/10/28 19:57:29;;;;;;;0.20;0.20;;;;;;;;;;6300214;22;20031;-90
2023/10/28 19:59:55;;;;;;;0.28;0.28;;;;;;;;;;6275421;22;20068;-89
2023/10/28 20:07:33;;;;;;;0.38;0.38;;;;;;;;;;6258931;22;20801;-88
2023/10/28 20:10:00;;;;;;;0.30;0.30;;;;;;;;;;6279125;22;20049;-88
2023/10/28 20:12:26;;;;;;;0.30;0.30;;;;;;;;;;6277072;22;20019;-89
2023/10/28 20:14:52;;;;;;;0.38;0.38;;;;;;;;;;6275917;22;20025;-89
2023/10/28 20:17:18;;;;;;;0.30;0.30;;;;;;;;;;6301798;22;20019;-88
2023/10/28 20:19:44;;;;;;;0.32;0.32;;;;;;;;;;6274729;22;20084;-89
2023/10/28 20:22:10;;;;;;;0.40;0.40;;;;;;;;;;6274625;22;20339;-88
2023/10/28 20:24:36;;;;;;;0.30;0.30;;;;;;;;;;6274801;22;20019;-89
2023/10/28 20:27:03;;;;;;;0.20;0.20;;;;;;;;;;6276392;22;20003;-90
2023/10/28 20:29:28;;;;;;;0.32;0.32;;;;;;;;;;6274899;22;20050;-89
2023/10/28 20:34:31;;;;;;;0.40;0.40;;;;;;;;;;6292284;22;20020;-87
2023/10/28 20:36:57;;;;;;;0.20;0.20;;;;;;;;;;6245347;22;20051;-90
2023/10/28 20:39:23;;;;;;;0.30;0.30;;;;;;;;;;6244812;22;20022;-88
2023/10/28 20:41:49;;;;;;;0.20;0.20;;;;;;;;;;6245679;22;20020;-88
2023/10/28 20:44:15;;;;;;;0.30;0.30;;;;;;;;;;6245449;22;20042;-90